sensor_id;sensor_type;location;lat;lon;timestamp;pressure;altitude;pressure_sealevel;temperature;humidity
20043;BME280;10182;52.896;6.496;2022-07-03T00:04:07;101600.56;;;16.86;82.53
20043;BME280;10182;52.896;6.496;2022-07-03T00:09:10;101598.03;;;16.99;80.29
20043;BME280;10182;52.896;6.496;2022-07-03T00:14:13;101594.91;;;17.06;78.75
20043;BME280;10182;52.896;6.496;2022-07-03T00:19:14;101595.84;;;16.91;81.03
20043;BME280;10182;52.896;6.496;2022-07-03T00:24:23;101594.22;;;16.72;83.50
20043;BME280;10182;52.896;6.496;2022-07-03T00:29:31;101582.66;;;16.72;83.33
20043;BME280;10182;52.896;6.496;2022-07-03T00:34:33;101582.47;;;16.75;80.96
20043;BME280;10182;52.896;6.496;2022-07-03T00:39:38;101577.72;;;16.80;80.25
20043;BME280;10182;52.896;6.496;2022-07-03T00:44:44;101580.63;;;16.91;78.90
20043;BME280;10182;52.896;6.496;2022-07-03T00:49:48;101586.00;;;16.91;78.22
20043;BME280;10182;52.896;6.496;2022-07-03T00:54:54;101570.53;;;16.81;78.08
20043;BME280;10182;52.896;6.496;2022-07-03T00:59:57;101575.63;;;16.55;82.64
20043;BME280;10182;52.896;6.496;2022-07-03T01:05:04;101564.66;;;16.13;85.10
20043;BME280;10182;52.896;6.496;2022-07-03T01:10:14;101568.13;;;15.99;87.52
20043;BME280;10182;52.896;6.496;2022-07-03T01:15:26;101571.03;;;15.95;86.92
20043;BME280;10182;52.896;6.496;2022-07-03T01:20:32;101568.03;;;16.01;86.20
20043;BME280;10182;52.896;6.496;2022-07-03T01:25:42;101556.19;;;16.21;82.78
20043;BME280;10182;52.896;6.496;2022-07-03T01:30:47;101557.69;;;16.27;81.52
20043;BME280;10182;52.896;6.496;2022-07-03T01:35:58;101553.78;;;16.16;81.51
20043;BME280;10182;52.896;6.496;2022-07-03T01:41:05;101541.03;;;16.05;82.71
20043;BME280;10182;52.896;6.496;2022-07-03T01:46:08;101538.91;;;15.96;83.63
20043;BME280;10182;52.896;6.496;2022-07-03T01:51:13;101535.13;;;15.84;85.76
20043;BME280;10182;52.896;6.496;2022-07-03T01:56:19;101543.38;;;15.80;84.24
20043;BME280;10182;52.896;6.496;2022-07-03T02:01:25;101536.25;;;15.80;83.08
20043;BME280;10182;52.896;6.496;2022-07-03T02:06:37;101533.03;;;15.73;81.61
20043;BME280;10182;52.896;6.496;2022-07-03T02:11:44;101536.91;;;15.68;82.30
20043;BME280;10182;52.896;6.496;2022-07-03T02:16:58;101536.78;;;15.53;85.64
20043;BME280;10182;52.896;6.496;2022-07-03T02:22:07;101536.75;;;15.21;87.62
20043;BME280;10182;52.896;6.496;2022-07-03T02:27:15;101541.00;;;15.08;88.73
20043;BME280;10182;52.896;6.496;2022-07-03T02:32:20;101527.38;;;14.97;88.78
20043;BME280;10182;52.896;6.496;2022-07-03T02:37:23;101522.03;;;14.97;89.39
20043;BME280;10182;52.896;6.496;2022-07-03T02:42:38;101550.84;;;14.72;87.26
20043;BME280;10182;52.896;6.496;2022-07-03T02:47:47;101546.13;;;14.60;87.22
20043;BME280;10182;52.896;6.496;2022-07-03T02:52:57;101544.91;;;14.48;87.44
20043;BME280;10182;52.896;6.496;2022-07-03T02:58:09;101542.25;;;14.48;87.61
20043;BME280;10182;52.896;6.496;2022-07-03T03:03:12;101542.59;;;14.42;87.03
20043;BME280;10182;52.896;6.496;2022-07-03T03:08:17;101545.16;;;14.44;86.79
20043;BME280;10182;52.896;6.496;2022-07-03T03:13:28;101540.44;;;14.49;87.60
20043;BME280;10182;52.896;6.496;2022-07-03T03:18:34;101542.09;;;14.51;87.83
20043;BME280;10182;52.896;6.496;2022-07-03T03:23:43;101548.03;;;14.39;86.64
20043;BME280;10182;52.896;6.496;2022-07-03T03:28:47;101542.78;;;14.37;86.39
20043;BME280;10182;52.896;6.496;2022-07-03T03:33:50;101545.63;;;14.34;87.96
20043;BME280;10182;52.896;6.496;2022-07-03T03:38:53;101537.78;;;14.31;87.60
20043;BME280;10182;52.896;6.496;2022-07-03T03:43:56;101526.59;;;14.42;87.33
20043;BME280;10182;52.896;6.496;2022-07-03T03:48:58;101532.44;;;14.49;86.15
20043;BME280;10182;52.896;6.496;2022-07-03T03:54:00;101529.56;;;14.53;85.38
20043;BME280;10182;52.896;6.496;2022-07-03T03:59:05;101519.25;;;14.65;86.41
20043;BME280;10182;52.896;6.496;2022-07-03T04:04:07;101521.91;;;14.65;85.59
20043;BME280;10182;52.896;6.496;2022-07-03T04:09:08;101531.72;;;14.64;86.22
20043;BME280;10182;52.896;6.496;2022-07-03T04:14:11;101536.72;;;14.53;86.28
20043;BME280;10182;52.896;6.496;2022-07-03T04:19:13;101533.16;;;14.35;86.94
20043;BME280;10182;52.896;6.496;2022-07-03T04:24:15;101536.81;;;14.32;87.43
20043;BME280;10182;52.896;6.496;2022-07-03T04:29:18;101544.13;;;14.29;87.53
20043;BME280;10182;52.896;6.496;2022-07-03T04:34:19;101544.13;;;14.29;88.11
20043;BME280;10182;52.896;6.496;2022-07-03T04:39:21;101541.13;;;14.35;88.01
20043;BME280;10182;52.896;6.496;2022-07-03T04:44:24;101542.16;;;14.50;87.97
20043;BME280;10182;52.896;6.496;2022-07-03T04:49:26;101538.84;;;14.64;87.51
20043;BME280;10182;52.896;6.496;2022-07-03T04:54:27;101532.66;;;14.81;87.11
20043;BME280;10182;52.896;6.496;2022-07-03T04:59:30;101533.56;;;14.97;86.66
20043;BME280;10182;52.896;6.496;2022-07-03T05:04:32;101531.41;;;15.21;85.59
20043;BME280;10182;52.896;6.496;2022-07-03T05:09:34;101531.44;;;15.53;85.59
20043;BME280;10182;52.896;6.496;2022-07-03T05:14:37;101531.13;;;15.76;83.60
20043;BME280;10182;52.896;6.496;2022-07-03T05:19:38;101542.06;;;16.03;83.45
20043;BME280;10182;52.896;6.496;2022-07-03T05:24:40;101542.31;;;16.30;81.69
20043;BME280;10182;52.896;6.496;2022-07-03T05:29:43;101543.22;;;16.45;80.49
20043;BME280;10182;52.896;6.496;2022-07-03T05:34:45;101552.25;;;16.58;80.45
20043;BME280;10182;52.896;6.496;2022-07-03T05:39:46;101556.31;;;16.80;81.70
20043;BME280;10182;52.896;6.496;2022-07-03T05:44:49;101547.81;;;17.18;80.71
20043;BME280;10182;52.896;6.496;2022-07-03T05:49:51;101556.50;;;17.36;79.79
20043;BME280;10182;52.896;6.496;2022-07-03T05:54:53;101561.94;;;17.49;77.47
20043;BME280;10182;52.896;6.496;2022-07-03T05:59:56;101559.63;;;17.72;77.43
20043;BME280;10182;52.896;6.496;2022-07-03T06:04:57;101564.00;;;17.87;76.70
20043;BME280;10182;52.896;6.496;2022-07-03T06:09:59;101563.78;;;18.05;75.79
20043;BME280;10182;52.896;6.496;2022-07-03T06:15:03;101565.44;;;18.20;74.73
20043;BME280;10182;52.896;6.496;2022-07-03T06:20:05;101566.16;;;18.37;72.44
20043;BME280;10182;52.896;6.496;2022-07-03T06:25:07;101556.94;;;18.41;72.84
20043;BME280;10182;52.896;6.496;2022-07-03T06:30:11;101557.28;;;18.49;72.41
20043;BME280;10182;52.896;6.496;2022-07-03T06:35:13;101563.19;;;18.54;68.50
20043;BME280;10182;52.896;6.496;2022-07-03T06:40:15;101559.91;;;18.64;68.58
20043;BME280;10182;52.896;6.496;2022-07-03T06:45:18;101562.16;;;18.70;68.08
20043;BME280;10182;52.896;6.496;2022-07-03T06:50:19;101560.56;;;18.80;68.22
20043;BME280;10182;52.896;6.496;2022-07-03T06:55:21;101568.59;;;18.94;68.31
20043;BME280;10182;52.896;6.496;2022-07-03T07:00:24;101564.19;;;19.19;68.40
20043;BME280;10182;52.896;6.496;2022-07-03T07:05:26;101579.94;;;19.50;67.58
20043;BME280;10182;52.896;6.496;2022-07-03T07:10:28;101586.88;;;19.78;66.10
20043;BME280;10182;52.896;6.496;2022-07-03T07:15:31;101592.31;;;19.52;65.02
20043;BME280;10182;52.896;6.496;2022-07-03T07:20:33;101592.41;;;19.51;64.84
20043;BME280;10182;52.896;6.496;2022-07-03T07:25:34;101588.22;;;19.47;65.35
20043;BME280;10182;52.896;6.496;2022-07-03T07:30:38;101594.69;;;19.44;67.44
20043;BME280;10182;52.896;6.496;2022-07-03T07:35:40;101587.16;;;19.49;67.09
20043;BME280;10182;52.896;6.496;2022-07-03T07:40:41;101598.00;;;19.60;66.92
20043;BME280;10182;52.896;6.496;2022-07-03T07:45:44;101600.19;;;19.92;65.63
20043;BME280;10182;52.896;6.496;2022-07-03T07:50:46;101597.56;;;20.41;63.57
20043;BME280;10182;52.896;6.496;2022-07-03T07:55:49;101605.13;;;20.36;65.42
20043;BME280;10182;52.896;6.496;2022-07-03T08:00:52;101601.16;;;20.28;65.89
20043;BME280;10182;52.896;6.496;2022-07-03T08:06:12;101603.16;;;20.38;65.14
20043;BME280;10182;52.896;6.496;2022-07-03T08:11:13;101600.00;;;20.44;62.49
20043;BME280;10182;52.896;6.496;2022-07-03T08:16:16;101603.47;;;20.82;61.10
20043;BME280;10182;52.896;6.496;2022-07-03T08:21:18;101606.63;;;20.51;59.16
20043;BME280;10182;52.896;6.496;2022-07-03T08:26:20;101614.13;;;20.10;62.44
20043;BME280;10182;52.896;6.496;2022-07-03T08:31:23;101612.31;;;20.35;65.09
20043;BME280;10182;52.896;6.496;2022-07-03T08:36:25;101611.34;;;20.36;63.96
20043;BME280;10182;52.896;6.496;2022-07-03T08:41:27;101618.63;;;20.71;63.94
20043;BME280;10182;52.896;6.496;2022-07-03T08:46:31;101614.22;;;20.70;60.10
20043;BME280;10182;52.896;6.496;2022-07-03T08:51:35;101619.41;;;20.85;60.36
20043;BME280;10182;52.896;6.496;2022-07-03T08:56:36;101611.09;;;20.88;59.69
20043;BME280;10182;52.896;6.496;2022-07-03T09:01:41;101607.78;;;21.42;57.87
20043;BME280;10182;52.896;6.496;2022-07-03T09:06:44;101613.44;;;21.85;55.72
20043;BME280;10182;52.896;6.496;2022-07-03T09:11:46;101606.94;;;21.87;52.79
20043;BME280;10182;52.896;6.496;2022-07-03T09:16:50;101614.16;;;21.98;50.69
20043;BME280;10182;52.896;6.496;2022-07-03T09:21:52;101608.09;;;22.06;47.12
20043;BME280;10182;52.896;6.496;2022-07-03T09:26:54;101621.91;;;22.24;46.52
20043;BME280;10182;52.896;6.496;2022-07-03T09:31:57;101626.06;;;22.28;46.85
20043;BME280;10182;52.896;6.496;2022-07-03T09:36:58;101619.34;;;22.66;49.35
20043;BME280;10182;52.896;6.496;2022-07-03T09:42:01;101607.63;;;22.56;47.74
20043;BME280;10182;52.896;6.496;2022-07-03T09:47:08;101611.34;;;22.32;49.06
20043;BME280;10182;52.896;6.496;2022-07-03T09:52:25;101618.59;;;22.75;49.65
20043;BME280;10182;52.896;6.496;2022-07-03T09:57:29;101612.75;;;22.91;49.94
20043;BME280;10182;52.896;6.496;2022-07-03T10:02:32;101612.94;;;22.46;51.44
20043;BME280;10182;52.896;6.496;2022-07-03T10:07:49;101618.84;;;22.28;50.14
20043;BME280;10182;52.896;6.496;2022-07-03T10:12:52;101613.72;;;22.37;51.79
20043;BME280;10182;52.896;6.496;2022-07-03T10:17:57;101616.09;;;22.84;49.84
20043;BME280;10182;52.896;6.496;2022-07-03T10:22:59;101626.44;;;22.46;54.48
20043;BME280;10182;52.896;6.496;2022-07-03T10:28:01;101618.94;;;22.50;53.12
20043;BME280;10182;52.896;6.496;2022-07-03T10:33:04;101618.53;;;22.10;54.19
20043;BME280;10182;52.896;6.496;2022-07-03T10:38:28;101631.72;;;22.47;52.03
20043;BME280;10182;52.896;6.496;2022-07-03T10:43:35;101620.91;;;23.01;48.90
20043;BME280;10182;52.896;6.496;2022-07-03T10:49:01;101625.31;;;23.44;50.55
20043;BME280;10182;52.896;6.496;2022-07-03T10:54:16;101629.00;;;23.43;48.02
20043;BME280;10182;52.896;6.496;2022-07-03T10:59:18;101619.16;;;23.63;47.49
20043;BME280;10182;52.896;6.496;2022-07-03T11:04:21;101622.19;;;23.80;46.66
20043;BME280;10182;52.896;6.496;2022-07-03T11:09:23;101622.06;;;23.81;47.93
20043;BME280;10182;52.896;6.496;2022-07-03T11:14:25;101621.75;;;24.15;47.91
20043;BME280;10182;52.896;6.496;2022-07-03T11:19:29;101627.66;;;23.28;50.01
20043;BME280;10182;52.896;6.496;2022-07-03T11:24:38;101616.38;;;23.23;51.58
20043;BME280;10182;52.896;6.496;2022-07-03T11:29:41;101620.97;;;23.94;48.26
20043;BME280;10182;52.896;6.496;2022-07-03T11:34:44;101625.06;;;23.26;47.44
20043;BME280;10182;52.896;6.496;2022-07-03T11:39:48;101619.31;;;22.98;49.63
20043;BME280;10182;52.896;6.496;2022-07-03T11:44:54;101622.97;;;23.09;52.08
20043;BME280;10182;52.896;6.496;2022-07-03T11:49:57;101618.97;;;23.55;48.91
20043;BME280;10182;52.896;6.496;2022-07-03T11:54:58;101623.50;;;23.24;49.67
20043;BME280;10182;52.896;6.496;2022-07-03T12:00:04;101618.09;;;23.86;50.92
20043;BME280;10182;52.896;6.496;2022-07-03T12:05:14;101615.66;;;23.82;50.08
20043;BME280;10182;52.896;6.496;2022-07-03T12:10:16;101614.19;;;24.09;49.11
20043;BME280;10182;52.896;6.496;2022-07-03T12:15:18;101613.78;;;23.73;49.21
20043;BME280;10182;52.896;6.496;2022-07-03T12:20:21;101611.94;;;23.43;49.38
20043;BME280;10182;52.896;6.496;2022-07-03T12:25:29;101599.41;;;23.42;50.27
20043;BME280;10182;52.896;6.496;2022-07-03T12:30:31;101602.47;;;23.27;52.14
20043;BME280;10182;52.896;6.496;2022-07-03T12:35:34;101607.31;;;22.70;53.25
20043;BME280;10182;52.896;6.496;2022-07-03T12:40:36;101601.06;;;22.70;54.28
20043;BME280;10182;52.896;6.496;2022-07-03T12:45:38;101599.81;;;22.53;53.89
20043;BME280;10182;52.896;6.496;2022-07-03T12:50:45;101594.63;;;22.82;53.74
20043;BME280;10182;52.896;6.496;2022-07-03T12:55:47;101583.69;;;22.84;54.61
20043;BME280;10182;52.896;6.496;2022-07-03T13:00:49;101571.69;;;23.49;49.34
20043;BME280;10182;52.896;6.496;2022-07-03T13:05:53;101572.03;;;23.66;50.68
20043;BME280;10182;52.896;6.496;2022-07-03T13:10:56;101569.00;;;23.19;51.60
20043;BME280;10182;52.896;6.496;2022-07-03T13:15:57;101567.13;;;22.77;51.00
20043;BME280;10182;52.896;6.496;2022-07-03T13:21:01;101579.34;;;22.39;51.90
20043;BME280;10182;52.896;6.496;2022-07-03T13:26:02;101581.84;;;22.19;52.95
20043;BME280;10182;52.896;6.496;2022-07-03T13:31:04;101586.47;;;21.85;53.42
20043;BME280;10182;52.896;6.496;2022-07-03T13:36:07;101596.88;;;21.55;58.98
20043;BME280;10182;52.896;6.496;2022-07-03T13:41:09;101614.34;;;20.69;63.50
20043;BME280;10182;52.896;6.496;2022-07-03T13:46:10;101634.19;;;19.68;70.72
20043;BME280;10182;52.896;6.496;2022-07-03T13:51:14;101658.75;;;18.15;77.84
20043;BME280;10182;52.896;6.496;2022-07-03T13:56:16;101683.16;;;17.82;81.47
20043;BME280;10182;52.896;6.496;2022-07-03T14:01:19;101691.38;;;17.64;83.36
20043;BME280;10182;52.896;6.496;2022-07-03T14:06:22;101669.06;;;17.78;84.43
20043;BME280;10182;52.896;6.496;2022-07-03T14:11:24;101677.31;;;18.04;85.84
20043;BME280;10182;52.896;6.496;2022-07-03T14:16:26;101660.28;;;18.19;85.58
20043;BME280;10182;52.896;6.496;2022-07-03T14:21:29;101648.47;;;18.22;83.58
20043;BME280;10182;52.896;6.496;2022-07-03T14:26:31;101665.66;;;18.05;84.32
20043;BME280;10182;52.896;6.496;2022-07-03T14:31:52;101660.22;;;18.61;84.28
20043;BME280;10182;52.896;6.496;2022-07-03T14:37:13;101648.56;;;19.02;81.35
20043;BME280;10182;52.896;6.496;2022-07-03T14:42:18;101643.56;;;19.62;81.88
20043;BME280;10182;52.896;6.496;2022-07-03T14:47:20;101658.16;;;19.97;77.73
20043;BME280;10182;52.896;6.496;2022-07-03T14:52:24;101658.88;;;20.11;76.52
20043;BME280;10182;52.896;6.496;2022-07-03T14:57:31;101659.09;;;20.08;75.13
20043;BME280;10182;52.896;6.496;2022-07-03T15:02:48;101678.50;;;19.49;73.62
20043;BME280;10182;52.896;6.496;2022-07-03T15:08:00;101669.03;;;19.31;73.50
20043;BME280;10182;52.896;6.496;2022-07-03T15:13:04;101656.00;;;19.24;74.35
20043;BME280;10182;52.896;6.496;2022-07-03T15:18:06;101676.69;;;18.97;75.71
20043;BME280;10182;52.896;6.496;2022-07-03T15:23:09;101672.88;;;18.86;76.23
20043;BME280;10182;52.896;6.496;2022-07-03T15:28:11;101678.09;;;18.75;74.33
20043;BME280;10182;52.896;6.496;2022-07-03T15:33:13;101678.56;;;18.54;76.50
20043;BME280;10182;52.896;6.496;2022-07-03T15:38:20;101689.38;;;18.53;77.24
20043;BME280;10182;52.896;6.496;2022-07-03T15:43:36;101703.91;;;18.36;78.75
20043;BME280;10182;52.896;6.496;2022-07-03T15:48:44;101705.75;;;18.21;79.84
20043;BME280;10182;52.896;6.496;2022-07-03T15:53:49;101704.59;;;18.10;80.56
20043;BME280;10182;52.896;6.496;2022-07-03T15:58:55;101685.56;;;18.01;81.23
20043;BME280;10182;52.896;6.496;2022-07-03T16:04:02;101682.63;;;18.33;81.21
20043;BME280;10182;52.896;6.496;2022-07-03T16:09:06;101676.81;;;19.08;79.56
20043;BME280;10182;52.896;6.496;2022-07-03T16:14:08;101690.16;;;19.22;75.54
20043;BME280;10182;52.896;6.496;2022-07-03T16:19:11;101682.75;;;19.13;71.83
20043;BME280;10182;52.896;6.496;2022-07-03T16:24:15;101692.56;;;19.40;71.33
20043;BME280;10182;52.896;6.496;2022-07-03T16:29:16;101691.78;;;20.02;70.78
20043;BME280;10182;52.896;6.496;2022-07-03T16:34:24;101706.03;;;21.14;66.05
20043;BME280;10182;52.896;6.496;2022-07-03T16:39:33;101705.09;;;21.85;62.64
20043;BME280;10182;52.896;6.496;2022-07-03T16:44:37;101718.19;;;22.01;63.58
20043;BME280;10182;52.896;6.496;2022-07-03T16:49:40;101726.88;;;21.23;64.32
20043;BME280;10182;52.896;6.496;2022-07-03T16:54:44;101711.38;;;20.04;67.07
20043;BME280;10182;52.896;6.496;2022-07-03T16:59:47;101722.66;;;18.92;70.37
20043;BME280;10182;52.896;6.496;2022-07-03T17:04:49;101711.53;;;18.84;71.67
20043;BME280;10182;52.896;6.496;2022-07-03T17:09:53;101708.66;;;18.72;72.38
20043;BME280;10182;52.896;6.496;2022-07-03T17:14:58;101711.38;;;18.31;74.31
20043;BME280;10182;52.896;6.496;2022-07-03T17:20:04;101709.38;;;18.20;77.05
20043;BME280;10182;52.896;6.496;2022-07-03T17:25:11;101712.53;;;18.26;76.74
20043;BME280;10182;52.896;6.496;2022-07-03T17:30:15;101704.06;;;18.47;75.30
20043;BME280;10182;52.896;6.496;2022-07-03T17:35:21;101712.94;;;18.62;74.00
20043;BME280;10182;52.896;6.496;2022-07-03T17:40:26;101718.78;;;18.54;74.16
20043;BME280;10182;52.896;6.496;2022-07-03T17:45:28;101721.00;;;18.48;74.88
20043;BME280;10182;52.896;6.496;2022-07-03T17:50:31;101723.72;;;18.33;74.42
20043;BME280;10182;52.896;6.496;2022-07-03T17:55:34;101717.59;;;18.31;74.77
20043;BME280;10182;52.896;6.496;2022-07-03T18:00:37;101714.28;;;18.13;73.67
20043;BME280;10182;52.896;6.496;2022-07-03T18:05:41;101712.06;;;18.05;75.03
20043;BME280;10182;52.896;6.496;2022-07-03T18:10:51;101703.94;;;17.92;77.13
20043;BME280;10182;52.896;6.496;2022-07-03T18:15:56;101707.09;;;17.99;76.41
20043;BME280;10182;52.896;6.496;2022-07-03T18:20:58;101713.94;;;17.89;75.11
20043;BME280;10182;52.896;6.496;2022-07-03T18:26:03;101714.94;;;17.88;75.39
20043;BME280;10182;52.896;6.496;2022-07-03T18:31:06;101725.22;;;17.80;75.40
20043;BME280;10182;52.896;6.496;2022-07-03T18:36:08;101735.59;;;17.86;76.48
20043;BME280;10182;52.896;6.496;2022-07-03T18:41:13;101727.66;;;17.99;76.41
20043;BME280;10182;52.896;6.496;2022-07-03T18:46:15;101732.25;;;18.11;76.04
20043;BME280;10182;52.896;6.496;2022-07-03T18:51:22;101728.63;;;18.12;76.13
20043;BME280;10182;52.896;6.496;2022-07-03T18:56:40;101734.38;;;18.06;76.74
20043;BME280;10182;52.896;6.496;2022-07-03T19:01:45;101735.44;;;18.03;77.79
20043;BME280;10182;52.896;6.496;2022-07-03T19:06:49;101738.81;;;17.76;77.53
20043;BME280;10182;52.896;6.496;2022-07-03T19:11:56;101747.63;;;17.64;76.28
20043;BME280;10182;52.896;6.496;2022-07-03T19:17:04;101745.44;;;17.56;75.87
20043;BME280;10182;52.896;6.496;2022-07-03T19:22:06;101745.38;;;17.42;76.33
20043;BME280;10182;52.896;6.496;2022-07-03T19:27:10;101756.03;;;17.28;77.19
20043;BME280;10182;52.896;6.496;2022-07-03T19:32:12;101754.06;;;17.15;77.81
20043;BME280;10182;52.896;6.496;2022-07-03T19:37:14;101757.66;;;17.00;78.39
20043;BME280;10182;52.896;6.496;2022-07-03T19:42:19;101755.06;;;16.98;79.50
20043;BME280;10182;52.896;6.496;2022-07-03T19:47:21;101763.28;;;16.95;79.10
20043;BME280;10182;52.896;6.496;2022-07-03T19:52:23;101767.47;;;16.83;80.40
20043;BME280;10182;52.896;6.496;2022-07-03T19:57:26;101778.50;;;16.77;81.20
20043;BME280;10182;52.896;6.496;2022-07-03T20:02:27;101779.81;;;16.70;81.13
20043;BME280;10182;52.896;6.496;2022-07-03T20:07:29;101786.56;;;16.61;81.60
20043;BME280;10182;52.896;6.496;2022-07-03T20:12:32;101790.25;;;16.58;81.12
20043;BME280;10182;52.896;6.496;2022-07-03T20:17:36;101788.28;;;16.46;80.56
20043;BME280;10182;52.896;6.496;2022-07-03T20:22:38;101780.47;;;16.26;81.16
20043;BME280;10182;52.896;6.496;2022-07-03T20:27:41;101781.53;;;16.05;84.36
20043;BME280;10182;52.896;6.496;2022-07-03T20:32:43;101784.00;;;15.93;85.04
20043;BME280;10182;52.896;6.496;2022-07-03T20:37:45;101788.47;;;15.92;84.71
20043;BME280;10182;52.896;6.496;2022-07-03T20:42:48;101787.44;;;15.77;84.59
20043;BME280;10182;52.896;6.496;2022-07-03T20:47:50;101796.09;;;15.65;85.31
20043;BME280;10182;52.896;6.496;2022-07-03T20:52:52;101800.03;;;15.57;85.23
20043;BME280;10182;52.896;6.496;2022-07-03T20:57:55;101803.16;;;15.48;84.57
20043;BME280;10182;52.896;6.496;2022-07-03T21:02:57;101807.06;;;15.41;85.45
20043;BME280;10182;52.896;6.496;2022-07-03T21:07:58;101809.91;;;15.38;85.25
20043;BME280;10182;52.896;6.496;2022-07-03T21:13:01;101820.78;;;15.33;85.17
20043;BME280;10182;52.896;6.496;2022-07-03T21:18:04;101817.56;;;15.27;85.43
20043;BME280;10182;52.896;6.496;2022-07-03T21:23:06;101816.31;;;15.16;85.43
20043;BME280;10182;52.896;6.496;2022-07-03T21:28:09;101824.25;;;14.99;85.07
20043;BME280;10182;52.896;6.496;2022-07-03T21:33:11;101827.66;;;14.83;85.49
20043;BME280;10182;52.896;6.496;2022-07-03T21:38:13;101836.75;;;14.79;86.30
20043;BME280;10182;52.896;6.496;2022-07-03T21:43:16;101834.38;;;14.73;87.06
20043;BME280;10182;52.896;6.496;2022-07-03T21:48:17;101839.25;;;14.63;87.80
20043;BME280;10182;52.896;6.496;2022-07-03T21:53:19;101831.81;;;14.51;88.57
20043;BME280;10182;52.896;6.496;2022-07-03T21:58:22;101836.25;;;14.31;87.00
20043;BME280;10182;52.896;6.496;2022-07-03T22:03:25;101839.63;;;14.35;87.19
20043;BME280;10182;52.896;6.496;2022-07-03T22:08:26;101833.44;;;14.34;87.08
20043;BME280;10182;52.896;6.496;2022-07-03T22:13:29;101840.63;;;14.32;87.93
20043;BME280;10182;52.896;6.496;2022-07-03T22:18:31;101836.38;;;14.28;87.79
20043;BME280;10182;52.896;6.496;2022-07-03T22:23:33;101830.81;;;14.14;87.86
20043;BME280;10182;52.896;6.496;2022-07-03T22:28:36;101831.72;;;14.13;88.21
20043;BME280;10182;52.896;6.496;2022-07-03T22:33:37;101827.53;;;14.07;88.62
20043;BME280;10182;52.896;6.496;2022-07-03T22:38:39;101829.22;;;14.10;88.55
20043;BME280;10182;52.896;6.496;2022-07-03T22:43:42;101831.00;;;14.09;88.49
20043;BME280;10182;52.896;6.496;2022-07-03T22:48:44;101832.34;;;13.99;88.20
20043;BME280;10182;52.896;6.496;2022-07-03T22:53:45;101832.66;;;13.91;88.67
20043;BME280;10182;52.896;6.496;2022-07-03T22:58:48;101828.41;;;13.87;90.20
20043;BME280;10182;52.896;6.496;2022-07-03T23:03:50;101832.22;;;13.81;90.43
20043;BME280;10182;52.896;6.496;2022-07-03T23:08:52;101829.81;;;13.75;90.90
20043;BME280;10182;52.896;6.496;2022-07-03T23:13:55;101820.28;;;13.69;91.20
20043;BME280;10182;52.896;6.496;2022-07-03T23:18:57;101821.41;;;13.64;91.63
20043;BME280;10182;52.896;6.496;2022-07-03T23:23:59;101817.22;;;13.58;91.64
20043;BME280;10182;52.896;6.496;2022-07-03T23:29:02;101819.16;;;13.54;91.83
20043;BME280;10182;52.896;6.496;2022-07-03T23:34:04;101828.13;;;13.52;92.36
20043;BME280;10182;52.896;6.496;2022-07-03T23:39:05;101819.63;;;13.42;91.99
20043;BME280;10182;52.896;6.496;2022-07-03T23:44:08;101828.75;;;13.36;92.36
20043;BME280;10182;52.896;6.496;2022-07-03T23:49:14;101826.19;;;13.33;92.93
20043;BME280;10182;52.896;6.496;2022-07-03T23:54:33;101817.66;;;13.25;92.75
20043;BME280;10182;52.896;6.496;2022-07-03T23:59:36;101810.97;;;13.15;92.53
